createdAt,value
2018-12-06T00:00:50.957Z,4.01
2018-12-06T00:03:22.097Z,4.03
2018-12-06T00:05:57.799Z,4.07
2018-12-06T00:08:27.940Z,4.15
2018-12-06T00:10:58.209Z,4.24
2018-12-06T00:13:29.189Z,4.20
2018-12-06T00:15:59.560Z,4.20
2018-12-06T00:18:29.817Z,4.20
2018-12-06T00:21:00.131Z,4.14
2018-12-06T00:23:30.318Z,4.17
2018-12-06T00:26:02.669Z,3.98
2018-12-06T00:28:33.010Z,4.04
2018-12-06T00:31:03.337Z,4.02
2018-12-06T00:33:34.144Z,3.97
2018-12-06T00:36:06.795Z,3.82
2018-12-06T00:38:36.954Z,3.84
2018-12-06T00:41:07.174Z,3.85
2018-12-06T00:43:38.201Z,3.87
2018-12-06T00:46:08.470Z,3.84
2018-12-06T00:48:38.765Z,3.88
2018-12-06T00:51:09.480Z,3.96
2018-12-06T00:53:39.763Z,3.90
2018-12-06T00:56:11.321Z,3.83
2018-12-06T00:58:42.277Z,3.86
2018-12-06T01:01:14.224Z,3.89
2018-12-06T01:03:45.897Z,3.87
2018-12-06T01:06:16.315Z,3.83
2018-12-06T01:08:46.758Z,3.82
2018-12-06T01:11:17.648Z,3.89
2018-12-06T01:13:50.102Z,3.83
2018-12-06T01:16:21.498Z,3.85
2018-12-06T01:18:54.092Z,3.82
2018-12-06T01:21:24.583Z,3.78
2018-12-06T01:23:56.086Z,3.77
2018-12-06T01:26:26.281Z,3.80
2018-12-06T01:28:57.924Z,3.79
2018-12-06T01:31:29.980Z,3.79
2018-12-06T01:34:01.531Z,3.76
2018-12-06T01:36:33.412Z,3.76
2018-12-06T01:39:05.391Z,3.62
2018-12-06T01:41:35.853Z,3.73
2018-12-06T01:44:06.653Z,3.67
2018-12-06T01:46:37.163Z,3.58
2018-12-06T01:49:08.790Z,3.68
2018-12-06T01:51:40.199Z,3.70
2018-12-06T01:54:12.494Z,3.73
2018-12-06T01:56:43.177Z,3.75
2018-12-06T01:59:14.272Z,3.65
2018-12-06T02:01:44.758Z,3.65
2018-12-06T02:04:15.649Z,3.68
2018-12-06T02:06:46.896Z,3.66
2018-12-06T02:09:17.948Z,3.62
2018-12-06T02:11:48.371Z,3.45
2018-12-06T02:14:20.244Z,3.53
2018-12-06T02:16:51.570Z,3.45
2018-12-06T02:19:23.423Z,3.48
2018-12-06T02:21:55.644Z,3.54
2018-12-06T02:24:26.997Z,3.62
2018-12-06T02:26:58.155Z,3.63
2018-12-06T02:29:33.127Z,3.63
2018-12-06T02:32:04.494Z,3.61
2018-12-06T02:34:37.852Z,3.52
2018-12-06T02:37:08.957Z,3.49
2018-12-06T02:39:42.114Z,3.44
2018-12-06T02:42:13.115Z,3.44
2018-12-06T02:44:44.738Z,3.49
2018-12-06T02:47:16.737Z,3.40
2018-12-06T02:49:53.934Z,3.47
2018-12-06T02:52:25.156Z,3.57
2018-12-06T02:54:55.321Z,3.53
2018-12-06T02:57:27.859Z,3.59
2018-12-06T02:59:59.824Z,3.56
2018-12-06T03:02:30.261Z,3.57
2018-12-06T03:05:01.342Z,3.52
2018-12-06T03:07:32.138Z,3.58
2018-12-06T03:10:03.536Z,3.57
2018-12-06T03:12:35.049Z,3.50
2018-12-06T03:15:06.282Z,3.55
2018-12-06T03:17:36.978Z,3.53
2018-12-06T03:20:08.128Z,3.60
2018-12-06T03:22:41.014Z,3.62
2018-12-06T03:25:12.944Z,3.49
2018-12-06T03:27:44.556Z,3.49
2018-12-06T03:30:14.841Z,3.40
2018-12-06T03:32:46.568Z,3.39
2018-12-06T03:35:17.513Z,3.25
2018-12-06T03:37:48.199Z,3.28
2018-12-06T03:40:18.542Z,3.13
2018-12-06T03:42:48.890Z,3.02
2018-12-06T03:45:20.038Z,3.13
2018-12-06T03:47:51.333Z,3.14
2018-12-06T03:50:22.888Z,3.19
2018-12-06T03:52:55.221Z,3.18
2018-12-06T03:55:26.447Z,3.20
2018-12-06T03:58:01.128Z,3.22
2018-12-06T04:00:33.282Z,3.19
2018-12-06T04:03:04.438Z,3.19
2018-12-06T04:05:35.598Z,3.19
2018-12-06T04:08:09.242Z,3.18
2018-12-06T04:10:40.289Z,3.17
2018-12-06T04:13:13.467Z,3.16
2018-12-06T04:15:44.586Z,3.19
2018-12-06T04:18:15.209Z,3.17
2018-12-06T04:20:46.116Z,3.16
2018-12-06T04:23:16.656Z,3.20
2018-12-06T04:25:47.457Z,3.09
2018-12-06T04:28:18.943Z,3.05
2018-12-06T04:30:51.054Z,3.14
2018-12-06T04:33:25.055Z,3.18
2018-12-06T04:35:55.936Z,3.08
2018-12-06T04:38:27.257Z,3.19
2018-12-06T04:40:58.401Z,3.19
2018-12-06T04:43:29.221Z,3.13
2018-12-06T04:46:01.250Z,3.17
2018-12-06T04:48:32.012Z,3.25
2018-12-06T04:51:05.725Z,3.16
2018-12-06T04:53:36.469Z,3.15
2018-12-06T04:56:07.132Z,3.20
2018-12-06T04:58:38.394Z,3.24
2018-12-06T05:01:10.325Z,3.21
2018-12-06T05:03:42.079Z,3.24
2018-12-06T05:06:12.978Z,3.24
2018-12-06T05:08:46.886Z,3.19
2018-12-06T05:11:17.285Z,3.18
2018-12-06T05:16:49.916Z,3.28
2018-12-06T05:19:21.303Z,3.25
2018-12-06T05:21:51.597Z,3.20
2018-12-06T05:24:22.591Z,3.17
2018-12-06T05:26:52.803Z,3.24
2018-12-06T05:29:25.581Z,3.25
2018-12-06T05:31:55.946Z,3.33
2018-12-06T05:34:27.833Z,3.31
2018-12-06T05:37:00.062Z,3.32
2018-12-06T05:39:31.355Z,3.39
2018-12-06T05:42:02.252Z,3.46
2018-12-06T05:44:32.507Z,3.39
2018-12-06T05:47:02.720Z,3.33
2018-12-06T05:49:35.020Z,3.28
2018-12-06T05:52:05.938Z,3.32
2018-12-06T05:54:36.132Z,3.36
2018-12-06T05:57:06.429Z,3.35
2018-12-06T05:59:36.592Z,3.28
2018-12-06T06:02:06.996Z,3.32
2018-12-06T06:04:37.814Z,3.33
2018-12-06T06:07:08.100Z,3.39
2018-12-06T06:09:38.429Z,3.36
2018-12-06T06:12:14.773Z,3.40
2018-12-06T06:14:45.869Z,3.39
2018-12-06T06:17:16.215Z,3.40
2018-12-06T06:19:46.604Z,3.40
2018-12-06T06:22:18.944Z,3.44
2018-12-06T06:24:50.088Z,3.48
2018-12-06T06:27:20.444Z,3.40
2018-12-06T06:29:51.849Z,3.41
2018-12-06T06:32:22.012Z,3.50
2018-12-06T06:34:52.208Z,3.48
2018-12-06T06:37:22.625Z,3.60
2018-12-06T06:39:54.056Z,3.57
2018-12-06T06:42:24.381Z,3.60
2018-12-06T06:44:55.337Z,3.90
2018-12-06T06:47:25.664Z,4.15
2018-12-06T06:49:55.615Z,4.26
2018-12-06T06:52:25.938Z,4.37
2018-12-06T06:54:56.184Z,4.56
2018-12-06T06:57:28.376Z,4.83
2018-12-06T07:00:00.590Z,5.65
2018-12-06T07:02:30.873Z,6.22
2018-12-06T07:05:02.066Z,6.71
2018-12-06T07:07:32.835Z,6.65
2018-12-06T07:10:04.677Z,6.67
2018-12-06T07:12:34.909Z,7.01
2018-12-06T07:15:05.509Z,7.86
2018-12-06T07:17:36.877Z,8.49
2018-12-06T07:20:08.092Z,8.22
2018-12-06T07:22:38.431Z,8.00
2018-12-06T07:25:09.573Z,9.10
2018-12-06T07:27:39.969Z,9.77
2018-12-06T07:30:12.479Z,9.10
2018-12-06T07:32:44.509Z,8.15
2018-12-06T07:35:16.079Z,7.60
2018-12-06T07:37:48.001Z,7.34
2018-12-06T07:40:19.202Z,6.80
2018-12-06T07:42:49.586Z,6.54
2018-12-06T07:45:22.945Z,6.19
2018-12-06T07:47:53.706Z,6.13
2018-12-06T07:50:25.199Z,6.13
2018-12-06T07:52:57.144Z,6.22
2018-12-06T07:55:28.669Z,6.22
2018-12-06T07:57:59.990Z,6.23
2018-12-06T08:00:31.384Z,6.36
2018-12-06T08:03:03.385Z,6.54
2018-12-06T08:05:33.488Z,6.72
2018-12-06T08:08:04.928Z,7.15
2018-12-06T08:10:36.688Z,7.70
2018-12-06T08:13:06.861Z,9.57
2018-12-06T08:15:38.872Z,11.19
2018-12-06T08:18:10.716Z,13.38
2018-12-06T08:20:41.897Z,14.78
2018-12-06T08:23:17.310Z,16.08
2018-12-06T08:25:48.645Z,16.04
2018-12-06T08:28:23.373Z,15.65
2018-12-06T08:30:55.410Z,14.77
2018-12-06T08:33:26.723Z,14.70
2018-12-06T08:35:57.667Z,14.72
2018-12-06T08:38:27.921Z,13.61
2018-12-06T08:40:58.825Z,14.31
2018-12-06T08:43:31.837Z,15.07
2018-12-06T08:46:06.693Z,15.92
2018-12-06T08:48:37.657Z,16.79
2018-12-06T08:51:11.028Z,17.02
2018-12-06T08:53:42.950Z,15.29
2018-12-06T08:56:16.667Z,15.44
2018-12-06T08:58:49.288Z,15.37
2018-12-06T09:01:20.455Z,14.45
2018-12-06T09:03:52.272Z,15.18
2018-12-06T09:06:22.710Z,15.11
2018-12-06T09:08:54.938Z,14.11
2018-12-06T09:11:26.042Z,14.07
2018-12-06T09:13:56.881Z,14.35
2018-12-06T09:16:31.329Z,15.18
2018-12-06T09:19:02.481Z,14.27
2018-12-06T09:21:33.805Z,13.74
2018-12-06T09:24:04.129Z,12.44
2018-12-06T09:26:35.142Z,11.71
2018-12-06T09:29:05.441Z,11.23
2018-12-06T09:31:35.648Z,10.33
2018-12-06T09:34:08.866Z,10.31
2018-12-06T09:36:40.166Z,9.72
2018-12-06T09:39:10.876Z,9.74
2018-12-06T09:41:41.238Z,9.88
2018-12-06T09:44:11.559Z,9.90
2018-12-06T09:46:43.760Z,10.13
2018-12-06T09:49:16.594Z,10.76
2018-12-06T09:51:48.682Z,12.13
2018-12-06T09:54:22.798Z,13.20
2018-12-06T09:56:56.341Z,14.68
2018-12-06T09:59:26.666Z,15.72
2018-12-06T10:01:56.963Z,17.46
2018-12-06T10:04:29.777Z,19.27
2018-12-06T10:07:02.453Z,20.89
2018-12-06T10:09:34.002Z,22.28
2018-12-06T10:12:06.829Z,23.31
2018-12-06T10:14:38.292Z,24.78
2018-12-06T10:17:15.382Z,24.73
2018-12-06T10:19:46.642Z,26.05
2018-12-06T10:22:17.556Z,26.14
2018-12-06T10:24:47.900Z,26.86
2018-12-06T10:27:18.217Z,27.54
2018-12-06T10:29:49.200Z,27.84
2018-12-06T10:32:19.702Z,27.81
2018-12-06T10:34:53.590Z,26.63
2018-12-06T10:37:23.284Z,26.17
2018-12-06T10:39:53.509Z,27.72
2018-12-06T10:42:25.810Z,27.72
2018-12-06T10:44:56.240Z,28.09
2018-12-06T10:47:29.119Z,28.45
2018-12-06T10:50:01.003Z,28.52
2018-12-06T10:52:31.870Z,28.91
2018-12-06T10:55:03.214Z,29.01
2018-12-06T10:57:34.525Z,28.47
2018-12-06T11:00:07.524Z,27.50
2018-12-06T11:02:44.297Z,27.97
2018-12-06T11:05:16.898Z,27.42
2018-12-06T11:07:47.887Z,27.50
2018-12-06T11:10:18.125Z,27.16
2018-12-06T11:12:49.208Z,25.79
2018-12-06T11:15:20.697Z,26.35
2018-12-06T11:17:50.989Z,27.48
2018-12-06T11:20:21.970Z,27.96
2018-12-06T11:22:54.023Z,28.49
2018-12-06T11:25:25.028Z,27.63
2018-12-06T11:27:58.821Z,28.04
2018-12-06T11:30:29.959Z,29.20
2018-12-06T11:33:02.128Z,29.16
2018-12-06T11:35:33.432Z,29.03
2018-12-06T11:38:04.933Z,28.94
2018-12-06T11:40:35.251Z,28.87
2018-12-06T11:43:05.420Z,27.27
2018-12-06T11:45:36.854Z,27.15
2018-12-06T11:48:06.944Z,26.04
2018-12-06T11:50:38.806Z,24.30
2018-12-06T11:53:11.432Z,22.51
2018-12-06T11:55:45.097Z,21.12
2018-12-06T11:58:15.760Z,19.86
2018-12-06T12:00:45.957Z,18.57
2018-12-06T12:03:17.470Z,17.63
2018-12-06T12:05:58.306Z,16.88
2018-12-06T12:08:23.914Z,16.31
2018-12-06T12:10:54.762Z,15.24
2018-12-06T12:13:25.108Z,14.69
2018-12-06T12:15:55.829Z,14.26
2018-12-06T12:18:27.319Z,13.72
2018-12-06T12:20:59.054Z,12.48
2018-12-06T12:23:29.438Z,12.46
2018-12-06T12:26:00.946Z,12.40
2018-12-06T12:28:31.332Z,12.28
2018-12-06T12:31:01.455Z,12.07
2018-12-06T12:33:36.355Z,11.87
2018-12-06T12:36:11.086Z,11.16
2018-12-06T12:38:41.421Z,10.78
2018-12-06T12:41:12.465Z,10.57
2018-12-06T12:43:46.399Z,10.47
2018-12-06T12:46:17.375Z,10.46
2018-12-06T12:48:49.789Z,10.37
2018-12-06T12:51:20.061Z,10.26
2018-12-06T12:53:51.026Z,10.21
2018-12-06T12:56:23.818Z,10.15
2018-12-06T12:58:54.045Z,10.11
2018-12-06T13:01:26.199Z,10.02
2018-12-06T13:03:57.559Z,9.85
2018-12-06T13:06:27.872Z,9.48
2018-12-06T13:08:58.692Z,9.56
2018-12-06T13:11:29.564Z,9.42
2018-12-06T13:14:00.776Z,9.41
2018-12-06T13:16:31.080Z,9.41
2018-12-06T13:19:03.101Z,9.28
2018-12-06T13:21:34.863Z,9.13
2018-12-06T13:24:05.836Z,9.15
2018-12-06T13:26:36.653Z,9.14
2018-12-06T13:32:08.969Z,8.57
2018-12-06T13:34:39.462Z,8.51
2018-12-06T13:37:09.759Z,8.52
2018-12-06T13:39:40.894Z,8.39
2018-12-06T13:42:11.467Z,8.43
2018-12-06T13:44:41.807Z,8.49
2018-12-06T13:47:13.128Z,8.49
2018-12-06T13:49:44.957Z,8.36
2018-12-06T13:52:17.154Z,8.36
2018-12-06T13:54:52.149Z,8.38
2018-12-06T13:57:23.964Z,8.29
2018-12-06T13:59:55.405Z,8.22
2018-12-06T14:02:26.401Z,8.10
2018-12-06T14:04:59.630Z,8.13
2018-12-06T14:07:31.008Z,8.08
2018-12-06T14:10:05.721Z,7.96
2018-12-06T14:12:35.952Z,7.86
2018-12-06T14:15:08.226Z,7.81
2018-12-06T14:17:39.466Z,7.79
2018-12-06T14:20:10.744Z,7.69
2018-12-06T14:22:44.677Z,7.58
2018-12-06T14:25:16.474Z,7.29
2018-12-06T14:27:47.373Z,7.13
2018-12-06T14:30:18.009Z,7.01
2018-12-06T14:32:48.382Z,7.08
2018-12-06T14:35:19.682Z,7.01
2018-12-06T14:37:52.470Z,6.96
2018-12-06T14:40:22.724Z,6.87
2018-12-06T14:42:54.443Z,6.77
2018-12-06T14:45:26.101Z,6.58
2018-12-06T14:47:57.468Z,6.38
2018-12-06T14:50:27.586Z,6.24
2018-12-06T14:52:58.038Z,6.12
2018-12-06T14:55:29.574Z,6.11
2018-12-06T14:58:03.621Z,6.06
2018-12-06T15:00:33.800Z,6.00
2018-12-06T15:03:03.932Z,5.99
2018-12-06T15:05:35.243Z,6.03
2018-12-06T15:08:06.591Z,5.98
2018-12-06T15:10:36.845Z,5.97
2018-12-06T15:13:07.148Z,5.87
2018-12-06T15:15:38.213Z,5.88
2018-12-06T15:18:08.456Z,5.78
2018-12-06T15:20:40.567Z,5.80
2018-12-06T15:23:12.183Z,5.74
2018-12-06T15:25:43.780Z,5.60
2018-12-06T15:28:14.054Z,5.53
2018-12-06T15:30:44.566Z,5.36
2018-12-06T15:33:14.753Z,5.22
2018-12-06T15:35:45.859Z,4.94
2018-12-06T15:38:17.388Z,4.75
2018-12-06T15:40:49.828Z,4.62
2018-12-06T15:43:20.788Z,4.51
2018-12-06T15:45:51.151Z,4.63
2018-12-06T15:48:21.225Z,4.39
2018-12-06T15:50:52.764Z,4.26
2018-12-06T15:53:25.152Z,4.00
2018-12-06T15:55:56.473Z,3.97
2018-12-06T15:58:30.070Z,3.88
2018-12-06T16:01:00.882Z,3.77
2018-12-06T16:03:31.208Z,3.85
2018-12-06T16:06:02.435Z,3.81
2018-12-06T16:08:35.055Z,3.79
2018-12-06T16:11:05.545Z,3.73
2018-12-06T16:13:36.607Z,3.60
2018-12-06T16:16:07.025Z,3.67
2018-12-06T16:18:37.848Z,3.58
2018-12-06T16:21:08.803Z,3.48
2018-12-06T16:23:41.393Z,3.40
2018-12-06T16:26:11.761Z,3.27
2018-12-06T16:28:52.001Z,3.24
2018-12-06T16:31:23.391Z,3.15
2018-12-06T16:33:54.460Z,3.11
2018-12-06T16:36:26.202Z,3.09
2018-12-06T16:38:57.914Z,3.01
2018-12-06T16:41:29.973Z,3.03
2018-12-06T16:44:04.767Z,2.86
2018-12-06T16:46:38.804Z,2.84
2018-12-06T16:49:11.764Z,2.78
2018-12-06T16:51:53.601Z,2.72
2018-12-06T16:54:27.320Z,2.74
2018-12-06T16:57:07.114Z,2.85
2018-12-06T16:59:41.976Z,3.10
2018-12-06T17:02:16.101Z,3.12
2018-12-06T17:04:52.441Z,3.12
2018-12-06T17:07:23.405Z,3.22
2018-12-06T17:09:53.699Z,3.24
2018-12-06T17:12:24.108Z,3.29
2018-12-06T17:14:55.573Z,3.34
2018-12-06T17:17:27.462Z,3.22
2018-12-06T17:19:57.742Z,3.32
2018-12-06T17:22:28.905Z,3.07
2018-12-06T17:24:59.217Z,3.10
2018-12-06T17:27:30.398Z,2.82
2018-12-06T17:30:00.913Z,2.65
2018-12-06T17:32:31.133Z,2.78
2018-12-06T17:35:01.429Z,2.90
2018-12-06T17:37:31.678Z,2.88
2018-12-06T17:40:02.836Z,3.05
2018-12-06T17:42:33.770Z,3.14
2018-12-06T17:45:05.204Z,3.06
2018-12-06T17:47:38.302Z,3.01
2018-12-06T17:50:10.026Z,2.72
2018-12-06T17:52:40.425Z,2.68
2018-12-06T17:55:11.148Z,2.55
2018-12-06T17:57:41.975Z,2.50
2018-12-06T18:00:12.694Z,2.48
2018-12-06T18:02:43.388Z,2.29
2018-12-06T18:05:15.017Z,2.24
2018-12-06T18:07:45.951Z,2.10
2018-12-06T18:10:16.729Z,2.14
2018-12-06T18:12:48.155Z,2.17
2018-12-06T18:15:18.767Z,2.18
2018-12-06T18:17:49.010Z,2.15
2018-12-06T18:20:19.365Z,2.20
2018-12-06T18:22:49.656Z,2.16
2018-12-06T18:25:19.812Z,2.12
2018-12-06T18:27:50.771Z,2.09
2018-12-06T18:30:21.134Z,2.09
2018-12-06T18:32:54.139Z,1.98
2018-12-06T18:35:25.569Z,1.79
2018-12-06T18:37:56.578Z,1.80
2018-12-06T18:40:26.798Z,1.71
2018-12-06T18:42:57.934Z,1.66
2018-12-06T18:45:28.156Z,1.70
2018-12-06T18:48:00.545Z,1.70
2018-12-06T18:50:31.038Z,1.57
2018-12-06T18:53:01.165Z,1.53
2018-12-06T18:55:32.397Z,1.44
2018-12-06T18:58:02.566Z,1.56
2018-12-06T19:00:33.500Z,1.53
2018-12-06T19:03:04.764Z,1.53
2018-12-06T19:05:36.727Z,1.49
2018-12-06T19:08:08.877Z,1.54
2018-12-06T19:10:40.257Z,1.53
2018-12-06T19:13:11.266Z,1.46
2018-12-06T19:15:42.415Z,1.50
2018-12-06T19:18:13.722Z,1.53
2018-12-06T19:20:44.614Z,1.48
2018-12-06T19:23:17.520Z,1.38
2018-12-06T19:25:48.349Z,1.35
2018-12-06T19:28:19.644Z,1.33
2018-12-06T19:30:50.298Z,1.38
2018-12-06T19:33:21.726Z,1.34
2018-12-06T19:35:52.958Z,1.35
2018-12-06T19:38:27.823Z,1.32
2018-12-06T19:41:09.982Z,1.23
2018-12-06T19:43:40.593Z,1.34
2018-12-06T19:46:15.756Z,1.49
2018-12-06T19:48:46.511Z,1.42
2018-12-06T19:51:16.773Z,1.38
2018-12-06T19:53:47.040Z,1.37
2018-12-06T19:56:17.327Z,1.44
2018-12-06T19:58:47.653Z,1.29
2018-12-06T20:01:17.826Z,1.25
2018-12-06T20:03:48.077Z,1.12
2018-12-06T20:06:18.378Z,1.11
2018-12-06T20:08:48.685Z,1.03
2018-12-06T20:11:19.044Z,0.88
2018-12-06T20:13:49.170Z,0.85
2018-12-06T20:16:19.611Z,0.85
2018-12-06T20:18:49.894Z,0.85
2018-12-06T20:21:20.294Z,1.03
2018-12-06T20:23:50.740Z,0.92
2018-12-06T20:26:21.036Z,0.91
2018-12-06T20:28:51.286Z,0.82
2018-12-06T20:31:21.463Z,0.75
2018-12-06T20:33:51.977Z,0.78
2018-12-06T20:36:22.482Z,0.74
2018-12-06T20:38:52.706Z,0.74
2018-12-06T20:41:22.984Z,0.78
2018-12-06T20:43:53.210Z,0.78
2018-12-06T20:46:23.721Z,0.77
2018-12-06T20:48:54.166Z,0.67
2018-12-06T20:51:24.395Z,0.64
2018-12-06T20:53:54.779Z,0.71
2018-12-06T20:56:24.984Z,0.69
2018-12-06T20:58:55.123Z,0.75
2018-12-06T21:01:25.990Z,0.79
2018-12-06T21:03:56.146Z,0.86
2018-12-06T21:06:26.492Z,0.94
2018-12-06T21:08:56.822Z,0.80
2018-12-06T21:11:27.088Z,0.69
2018-12-06T21:13:57.281Z,0.72
2018-12-06T21:16:27.553Z,0.69
2018-12-06T21:18:57.789Z,0.71
2018-12-06T21:21:28.121Z,0.79
2018-12-06T21:23:58.329Z,0.82
2018-12-06T21:26:28.583Z,0.81
2018-12-06T21:28:58.738Z,0.69
2018-12-06T21:31:29.092Z,0.59
2018-12-06T21:33:59.372Z,0.41
2018-12-06T21:36:29.526Z,0.34
2018-12-06T21:38:59.855Z,0.36
2018-12-06T21:41:30.245Z,0.47
2018-12-06T21:44:00.458Z,0.48
2018-12-06T21:46:30.687Z,0.44
2018-12-06T21:49:01.026Z,0.48
2018-12-06T21:51:31.247Z,0.47
2018-12-06T21:54:01.486Z,0.39
2018-12-06T21:56:31.692Z,0.35
2018-12-06T21:59:01.914Z,0.16
2018-12-06T22:01:32.250Z,0.19
2018-12-06T22:04:02.450Z,0.26
2018-12-06T22:06:32.642Z,0.28
2018-12-06T22:09:04.243Z,0.36
2018-12-06T22:11:34.497Z,0.43
2018-12-06T22:14:05.127Z,0.47
2018-12-06T22:16:35.320Z,0.33
2018-12-06T22:19:05.527Z,0.36
2018-12-06T22:21:35.745Z,0.36
2018-12-06T22:24:06.016Z,0.23
2018-12-06T22:26:36.279Z,0.21
2018-12-06T22:29:06.477Z,0.17
2018-12-06T22:31:36.677Z,0.13
2018-12-06T22:34:07.143Z,0.15
2018-12-06T22:36:37.679Z,0.08
2018-12-06T22:39:08.565Z,0.06
2018-12-06T22:41:38.974Z,0.00
2018-12-06T22:44:09.351Z,0.07
2018-12-06T22:46:39.737Z,0.06
2018-12-06T22:49:11.540Z,-0.03
2018-12-06T22:51:42.128Z,0.07
2018-12-06T22:54:12.993Z,0.21
2018-12-06T22:56:43.263Z,0.32
2018-12-06T22:59:13.989Z,0.28
2018-12-06T23:01:44.929Z,0.26
2018-12-06T23:04:15.191Z,0.09
2018-12-06T23:06:45.462Z,0.25
2018-12-06T23:09:15.807Z,0.39
2018-12-06T23:11:46.038Z,0.21
2018-12-06T23:14:16.329Z,0.31
2018-12-06T23:16:46.415Z,0.10
2018-12-06T23:19:16.509Z,0.02
2018-12-06T23:21:47.356Z,0.03
2018-12-06T23:24:17.614Z,-0.26
2018-12-06T23:26:47.835Z,-0.15
2018-12-06T23:29:18.062Z,-0.06
2018-12-06T23:31:48.314Z,0.06
2018-12-06T23:34:18.403Z,0.11
2018-12-06T23:36:48.539Z,0.10
2018-12-06T23:39:18.661Z,0.11
2018-12-06T23:41:48.857Z,0.14
2018-12-06T23:44:19.144Z,-0.09
2018-12-06T23:46:49.398Z,0.03
2018-12-06T23:49:19.681Z,-0.01
2018-12-06T23:51:49.912Z,-0.16
2018-12-06T23:54:20.218Z,-0.21
2018-12-06T23:56:51.602Z,-0.30
2018-12-06T23:59:21.826Z,-0.23
